sensor_id;sensor_type;location;lat;lon;timestamp;pressure;altitude;pressure_sealevel;temperature;humidity
51053;BME280;37093;37.716;-122.060;2023-03-04T00:01:38;99816.74;;;17.52;34.98
51053;BME280;37093;37.716;-122.060;2023-03-04T00:04:07;99820.66;;;17.33;34.79
51053;BME280;37093;37.716;-122.060;2023-03-04T00:06:36;99829.32;;;16.87;35.58
51053;BME280;37093;37.716;-122.060;2023-03-04T00:09:04;99837.67;;;16.10;36.39
51053;BME280;37093;37.716;-122.060;2023-03-04T00:11:33;99839.66;;;16.37;37.56
51053;BME280;37093;37.716;-122.060;2023-03-04T00:14:01;99839.69;;;16.24;37.20
51053;BME280;37093;37.716;-122.060;2023-03-04T00:16:30;99841.83;;;15.71;38.94
51053;BME280;37093;37.716;-122.060;2023-03-04T00:18:58;99841.12;;;15.11;40.53
51053;BME280;37093;37.716;-122.060;2023-03-04T00:21:27;99844.26;;;15.21;40.63
51053;BME280;37093;37.716;-122.060;2023-03-04T00:23:55;99840.85;;;15.88;39.10
51053;BME280;37093;37.716;-122.060;2023-03-04T00:26:24;99843.30;;;15.44;39.15
51053;BME280;37093;37.716;-122.060;2023-03-04T00:28:52;99843.49;;;15.13;40.66
51053;BME280;37093;37.716;-122.060;2023-03-04T00:31:21;99849.84;;;14.97;41.34
51053;BME280;37093;37.716;-122.060;2023-03-04T00:33:50;99852.07;;;14.77;40.65
51053;BME280;37093;37.716;-122.060;2023-03-04T00:36:18;99849.48;;;14.71;41.33
51053;BME280;37093;37.716;-122.060;2023-03-04T00:38:47;99846.95;;;14.44;39.87
51053;BME280;37093;37.716;-122.060;2023-03-04T00:41:15;99843.58;;;14.47;41.04
51053;BME280;37093;37.716;-122.060;2023-03-04T00:43:44;99843.81;;;14.37;41.15
51053;BME280;37093;37.716;-122.060;2023-03-04T00:46:12;99839.80;;;14.43;40.04
51053;BME280;37093;37.716;-122.060;2023-03-04T00:48:41;99840.32;;;14.83;39.38
51053;BME280;37093;37.716;-122.060;2023-03-04T00:51:10;99844.94;;;15.35;38.44
51053;BME280;37093;37.716;-122.060;2023-03-04T00:53:38;99847.85;;;15.71;37.77
51053;BME280;37093;37.716;-122.060;2023-03-04T00:56:07;99849.35;;;15.14;38.22
51053;BME280;37093;37.716;-122.060;2023-03-04T00:58:35;99846.51;;;15.29;38.74
51053;BME280;37093;37.716;-122.060;2023-03-04T01:01:04;99847.28;;;14.76;39.63
51053;BME280;37093;37.716;-122.060;2023-03-04T01:03:32;99848.94;;;14.61;39.83
51053;BME280;37093;37.716;-122.060;2023-03-04T01:06:01;99848.78;;;14.72;39.76
51053;BME280;37093;37.716;-122.060;2023-03-04T01:08:30;99845.50;;;14.62;39.31
51053;BME280;37093;37.716;-122.060;2023-03-04T01:10:59;99848.73;;;14.05;40.10
51053;BME280;37093;37.716;-122.060;2023-03-04T01:13:27;99846.26;;;14.48;40.00
51053;BME280;37093;37.716;-122.060;2023-03-04T01:15:56;99850.00;;;14.78;39.44
51053;BME280;37093;37.716;-122.060;2023-03-04T01:18:24;99853.03;;;14.64;39.23
51053;BME280;37093;37.716;-122.060;2023-03-04T01:20:53;99853.53;;;14.75;38.91
51053;BME280;37093;37.716;-122.060;2023-03-04T01:23:22;99856.28;;;14.12;38.78
51053;BME280;37093;37.716;-122.060;2023-03-04T01:25:50;99862.32;;;14.76;38.06
51053;BME280;37093;37.716;-122.060;2023-03-04T01:28:19;99863.10;;;14.79;38.04
51053;BME280;37093;37.716;-122.060;2023-03-04T01:30:47;99861.72;;;14.71;37.66
51053;BME280;37093;37.716;-122.060;2023-03-04T01:33:16;99860.62;;;14.75;37.27
51053;BME280;37093;37.716;-122.060;2023-03-04T01:35:44;99859.99;;;14.70;37.28
51053;BME280;37093;37.716;-122.060;2023-03-04T01:38:13;99859.75;;;14.87;37.74
51053;BME280;37093;37.716;-122.060;2023-03-04T01:40:41;99852.96;;;14.42;37.54
51053;BME280;37093;37.716;-122.060;2023-03-04T01:43:17;99856.32;;;14.97;37.24
51053;BME280;37093;37.716;-122.060;2023-03-04T01:45:46;99862.89;;;14.77;37.37
51053;BME280;37093;37.716;-122.060;2023-03-04T01:48:17;99861.70;;;15.24;36.86
51053;BME280;37093;37.716;-122.060;2023-03-04T01:50:46;99859.89;;;15.52;36.42
51053;BME280;37093;37.716;-122.060;2023-03-04T01:53:19;99861.64;;;14.82;37.18
51053;BME280;37093;37.716;-122.060;2023-03-04T01:55:52;99864.77;;;15.11;37.08
51053;BME280;37093;37.716;-122.060;2023-03-04T01:58:22;99869.67;;;14.97;35.72
51053;BME280;37093;37.716;-122.060;2023-03-04T02:00:50;99867.70;;;15.06;36.59
51053;BME280;37093;37.716;-122.060;2023-03-04T02:03:20;99867.89;;;15.50;35.65
51053;BME280;37093;37.716;-122.060;2023-03-04T02:05:51;99866.77;;;15.60;35.07
51053;BME280;37093;37.716;-122.060;2023-03-04T02:08:22;99863.07;;;15.29;35.36
51053;BME280;37093;37.716;-122.060;2023-03-04T02:10:52;99867.61;;;15.12;35.61
51053;BME280;37093;37.716;-122.060;2023-03-04T02:13:21;99874.69;;;14.98;35.86
51053;BME280;37093;37.716;-122.060;2023-03-04T02:15:49;99879.70;;;15.26;35.48
51053;BME280;37093;37.716;-122.060;2023-03-04T02:18:20;99874.98;;;15.65;35.62
51053;BME280;37093;37.716;-122.060;2023-03-04T02:20:57;99865.46;;;15.64;34.78
51053;BME280;37093;37.716;-122.060;2023-03-04T02:23:34;99863.58;;;16.02;34.87
51053;BME280;37093;37.716;-122.060;2023-03-04T02:26:11;99862.28;;;15.85;35.30
51053;BME280;37093;37.716;-122.060;2023-03-04T02:28:40;99855.35;;;16.25;34.82
51053;BME280;37093;37.716;-122.060;2023-03-04T02:31:18;99857.91;;;15.87;34.74
51053;BME280;37093;37.716;-122.060;2023-03-04T02:33:49;99859.82;;;15.94;35.37
51053;BME280;37093;37.716;-122.060;2023-03-04T02:36:18;99852.73;;;15.60;35.22
51053;BME280;37093;37.716;-122.060;2023-03-04T02:38:48;99854.39;;;15.87;34.92
51053;BME280;37093;37.716;-122.060;2023-03-04T02:41:19;99857.83;;;15.89;34.91
51053;BME280;37093;37.716;-122.060;2023-03-04T02:43:52;99863.84;;;15.92;35.09
51053;BME280;37093;37.716;-122.060;2023-03-04T02:46:20;99873.31;;;16.03;34.94
51053;BME280;37093;37.716;-122.060;2023-03-04T02:48:49;99875.35;;;15.75;34.25
51053;BME280;37093;37.716;-122.060;2023-03-04T02:51:18;99875.51;;;15.94;33.80
51053;BME280;37093;37.716;-122.060;2023-03-04T02:53:46;99871.78;;;15.24;35.08
51053;BME280;37093;37.716;-122.060;2023-03-04T02:56:15;99864.88;;;15.21;34.81
51053;BME280;37093;37.716;-122.060;2023-03-04T02:58:43;99866.51;;;14.91;36.26
51053;BME280;37093;37.716;-122.060;2023-03-04T03:01:12;99867.25;;;14.69;36.23
51053;BME280;37093;37.716;-122.060;2023-03-04T03:03:40;99866.18;;;14.48;36.58
51053;BME280;37093;37.716;-122.060;2023-03-04T03:06:09;99872.84;;;14.51;37.14
51053;BME280;37093;37.716;-122.060;2023-03-04T03:08:37;99875.71;;;14.78;37.52
51053;BME280;37093;37.716;-122.060;2023-03-04T03:11:06;99873.22;;;14.52;36.88
51053;BME280;37093;37.716;-122.060;2023-03-04T03:13:34;99872.52;;;14.48;37.43
51053;BME280;37093;37.716;-122.060;2023-03-04T03:16:03;99871.69;;;14.26;37.18
51053;BME280;37093;37.716;-122.060;2023-03-04T03:18:31;99867.67;;;14.23;37.43
51053;BME280;37093;37.716;-122.060;2023-03-04T03:20:59;99872.88;;;14.29;36.79
51053;BME280;37093;37.716;-122.060;2023-03-04T03:23:29;99882.69;;;14.43;36.65
51053;BME280;37093;37.716;-122.060;2023-03-04T03:25:57;99880.52;;;14.42;36.91
51053;BME280;37093;37.716;-122.060;2023-03-04T03:28:25;99875.98;;;14.05;37.15
51053;BME280;37093;37.716;-122.060;2023-03-04T03:30:54;99876.15;;;13.96;37.86
51053;BME280;37093;37.716;-122.060;2023-03-04T03:33:22;99880.41;;;14.16;37.59
51053;BME280;37093;37.716;-122.060;2023-03-04T03:35:51;99881.91;;;13.90;38.12
51053;BME280;37093;37.716;-122.060;2023-03-04T03:38:20;99885.60;;;13.92;37.99
51053;BME280;37093;37.716;-122.060;2023-03-04T03:40:48;99888.63;;;12.87;39.57
51053;BME280;37093;37.716;-122.060;2023-03-04T03:43:16;99883.65;;;12.72;40.06
51053;BME280;37093;37.716;-122.060;2023-03-04T03:45:45;99879.40;;;12.84;40.03
51053;BME280;37093;37.716;-122.060;2023-03-04T03:48:14;99882.37;;;13.07;39.78
51053;BME280;37093;37.716;-122.060;2023-03-04T03:50:42;99885.34;;;13.49;38.94
51053;BME280;37093;37.716;-122.060;2023-03-04T03:53:11;99882.74;;;13.08;39.72
51053;BME280;37093;37.716;-122.060;2023-03-04T03:55:39;99880.91;;;13.03;39.85
51053;BME280;37093;37.716;-122.060;2023-03-04T03:58:08;99881.72;;;13.25;39.57
51053;BME280;37093;37.716;-122.060;2023-03-04T04:00:37;99883.42;;;12.85;40.17
51053;BME280;37093;37.716;-122.060;2023-03-04T04:03:05;99882.70;;;12.87;40.41
51053;BME280;37093;37.716;-122.060;2023-03-04T04:05:34;99878.51;;;12.65;40.09
51053;BME280;37093;37.716;-122.060;2023-03-04T04:08:03;99875.25;;;12.23;40.94
51053;BME280;37093;37.716;-122.060;2023-03-04T04:10:31;99879.62;;;12.20;40.97
51053;BME280;37093;37.716;-122.060;2023-03-04T04:13:00;99872.99;;;12.33;41.45
51053;BME280;37093;37.716;-122.060;2023-03-04T04:15:28;99864.19;;;12.99;39.91
51053;BME280;37093;37.716;-122.060;2023-03-04T04:17:57;99867.32;;;12.34;41.78
51053;BME280;37093;37.716;-122.060;2023-03-04T04:20:25;99865.70;;;12.44;41.49
51053;BME280;37093;37.716;-122.060;2023-03-04T04:22:54;99872.47;;;12.42;40.74
51053;BME280;37093;37.716;-122.060;2023-03-04T04:25:23;99863.68;;;12.51;40.45
51053;BME280;37093;37.716;-122.060;2023-03-04T04:27:52;99865.30;;;12.56;40.98
51053;BME280;37093;37.716;-122.060;2023-03-04T04:30:21;99858.81;;;12.27;40.57
51053;BME280;37093;37.716;-122.060;2023-03-04T04:32:49;99855.19;;;12.21;39.92
51053;BME280;37093;37.716;-122.060;2023-03-04T04:35:18;99858.69;;;12.63;39.55
51053;BME280;37093;37.716;-122.060;2023-03-04T04:37:46;99858.58;;;12.76;40.11
51053;BME280;37093;37.716;-122.060;2023-03-04T04:40:15;99853.67;;;12.84;40.06
51053;BME280;37093;37.716;-122.060;2023-03-04T04:42:43;99842.68;;;12.58;40.11
51053;BME280;37093;37.716;-122.060;2023-03-04T04:45:11;99841.86;;;11.97;40.63
51053;BME280;37093;37.716;-122.060;2023-03-04T04:47:40;99849.53;;;12.39;40.44
51053;BME280;37093;37.716;-122.060;2023-03-04T04:50:09;99844.99;;;11.95;40.93
51053;BME280;37093;37.716;-122.060;2023-03-04T04:52:37;99846.84;;;11.88;41.24
51053;BME280;37093;37.716;-122.060;2023-03-04T04:55:07;99853.92;;;11.65;42.03
51053;BME280;37093;37.716;-122.060;2023-03-04T04:57:35;99850.57;;;11.93;41.57
51053;BME280;37093;37.716;-122.060;2023-03-04T05:00:04;99844.15;;;12.27;40.13
51053;BME280;37093;37.716;-122.060;2023-03-04T05:02:33;99844.99;;;12.75;39.73
51053;BME280;37093;37.716;-122.060;2023-03-04T05:05:02;99854.80;;;12.57;39.80
51053;BME280;37093;37.716;-122.060;2023-03-04T05:07:30;99862.03;;;12.95;39.24
51053;BME280;37093;37.716;-122.060;2023-03-04T05:09:59;99859.79;;;13.15;38.71
51053;BME280;37093;37.716;-122.060;2023-03-04T05:12:28;99856.72;;;13.00;38.63
51053;BME280;37093;37.716;-122.060;2023-03-04T05:14:56;99852.62;;;13.30;38.57
51053;BME280;37093;37.716;-122.060;2023-03-04T05:17:24;99852.95;;;12.63;38.85
51053;BME280;37093;37.716;-122.060;2023-03-04T05:19:53;99848.37;;;12.95;39.01
51053;BME280;37093;37.716;-122.060;2023-03-04T05:22:21;99834.18;;;12.59;39.73
51053;BME280;37093;37.716;-122.060;2023-03-04T05:24:50;99838.91;;;12.06;40.97
51053;BME280;37093;37.716;-122.060;2023-03-04T05:27:18;99842.81;;;11.83;40.97
51053;BME280;37093;37.716;-122.060;2023-03-04T05:29:47;99844.77;;;11.73;41.12
51053;BME280;37093;37.716;-122.060;2023-03-04T05:32:15;99843.35;;;12.01;40.82
51053;BME280;37093;37.716;-122.060;2023-03-04T05:34:44;99839.75;;;11.63;41.79
51053;BME280;37093;37.716;-122.060;2023-03-04T05:37:12;99841.44;;;12.22;40.66
51053;BME280;37093;37.716;-122.060;2023-03-04T05:39:40;99842.72;;;12.29;40.53
51053;BME280;37093;37.716;-122.060;2023-03-04T05:42:09;99831.52;;;11.65;41.40
51053;BME280;37093;37.716;-122.060;2023-03-04T05:44:38;99823.28;;;11.48;41.84
51053;BME280;37093;37.716;-122.060;2023-03-04T05:47:06;99835.27;;;11.45;42.18
51053;BME280;37093;37.716;-122.060;2023-03-04T05:49:35;99848.25;;;11.59;41.85
51053;BME280;37093;37.716;-122.060;2023-03-04T05:52:03;99853.72;;;12.02;41.36
51053;BME280;37093;37.716;-122.060;2023-03-04T05:54:32;99860.43;;;11.10;42.35
51053;BME280;37093;37.716;-122.060;2023-03-04T05:57:00;99865.12;;;11.63;42.16
51053;BME280;37093;37.716;-122.060;2023-03-04T05:59:29;99860.98;;;11.25;43.12
51053;BME280;37093;37.716;-122.060;2023-03-04T06:01:57;99855.25;;;10.88;44.12
51053;BME280;37093;37.716;-122.060;2023-03-04T06:04:26;99846.63;;;10.04;45.39
51053;BME280;37093;37.716;-122.060;2023-03-04T06:06:54;99849.23;;;10.87;44.54
51053;BME280;37093;37.716;-122.060;2023-03-04T06:09:23;99858.13;;;10.98;43.73
51053;BME280;37093;37.716;-122.060;2023-03-04T06:11:51;99858.45;;;11.09;44.17
51053;BME280;37093;37.716;-122.060;2023-03-04T06:14:20;99853.02;;;10.94;43.96
51053;BME280;37093;37.716;-122.060;2023-03-04T06:16:48;99842.74;;;11.39;42.82
51053;BME280;37093;37.716;-122.060;2023-03-04T06:19:17;99845.02;;;11.01;43.57
51053;BME280;37093;37.716;-122.060;2023-03-04T06:21:46;99843.16;;;11.56;42.98
51053;BME280;37093;37.716;-122.060;2023-03-04T06:24:14;99841.22;;;11.08;43.16
51053;BME280;37093;37.716;-122.060;2023-03-04T06:26:44;99834.41;;;11.41;42.64
51053;BME280;37093;37.716;-122.060;2023-03-04T06:29:12;99826.87;;;11.39;42.82
51053;BME280;37093;37.716;-122.060;2023-03-04T06:31:41;99821.94;;;11.35;42.19
51053;BME280;37093;37.716;-122.060;2023-03-04T06:34:09;99820.92;;;11.06;43.85
51053;BME280;37093;37.716;-122.060;2023-03-04T06:36:38;99810.09;;;11.03;42.87
51053;BME280;37093;37.716;-122.060;2023-03-04T06:39:07;99802.50;;;11.35;42.32
51053;BME280;37093;37.716;-122.060;2023-03-04T06:41:35;99805.67;;;10.76;43.07
51053;BME280;37093;37.716;-122.060;2023-03-04T06:44:05;99809.82;;;11.19;42.60
51053;BME280;37093;37.716;-122.060;2023-03-04T06:46:33;99808.19;;;11.64;41.69
51053;BME280;37093;37.716;-122.060;2023-03-04T06:49:02;99803.66;;;11.43;42.33
51053;BME280;37093;37.716;-122.060;2023-03-04T06:51:30;99800.32;;;11.40;42.60
51053;BME280;37093;37.716;-122.060;2023-03-04T06:53:59;99805.81;;;11.23;42.90
51053;BME280;37093;37.716;-122.060;2023-03-04T06:56:28;99809.04;;;11.27;42.83
51053;BME280;37093;37.716;-122.060;2023-03-04T06:58:56;99808.62;;;10.73;43.26
51053;BME280;37093;37.716;-122.060;2023-03-04T07:01:26;99810.75;;;10.77;44.11
51053;BME280;37093;37.716;-122.060;2023-03-04T07:03:56;99806.83;;;10.61;43.99
51053;BME280;37093;37.716;-122.060;2023-03-04T07:06:26;99802.26;;;10.58;44.00
51053;BME280;37093;37.716;-122.060;2023-03-04T07:08:56;99800.94;;;10.80;42.96
51053;BME280;37093;37.716;-122.060;2023-03-04T07:11:24;99799.86;;;10.45;43.82
51053;BME280;37093;37.716;-122.060;2023-03-04T07:13:53;99800.46;;;10.42;43.35
51053;BME280;37093;37.716;-122.060;2023-03-04T07:16:22;99795.90;;;10.74;43.95
51053;BME280;37093;37.716;-122.060;2023-03-04T07:18:51;99796.64;;;11.10;43.08
51053;BME280;37093;37.716;-122.060;2023-03-04T07:21:20;99792.34;;;11.17;42.83
51053;BME280;37093;37.716;-122.060;2023-03-04T07:23:48;99786.03;;;11.28;42.14
51053;BME280;37093;37.716;-122.060;2023-03-04T07:26:17;99784.76;;;11.42;41.93
51053;BME280;37093;37.716;-122.060;2023-03-04T07:28:46;99782.14;;;11.65;41.04
51053;BME280;37093;37.716;-122.060;2023-03-04T07:31:20;99783.35;;;11.54;41.00
51053;BME280;37093;37.716;-122.060;2023-03-04T07:33:50;99781.29;;;11.33;41.77
51053;BME280;37093;37.716;-122.060;2023-03-04T07:36:19;99782.10;;;11.50;41.08
51053;BME280;37093;37.716;-122.060;2023-03-04T07:38:48;99783.73;;;11.33;42.11
51053;BME280;37093;37.716;-122.060;2023-03-04T07:41:18;99785.39;;;10.70;42.80
51053;BME280;37093;37.716;-122.060;2023-03-04T07:43:47;99786.88;;;11.03;43.19
51053;BME280;37093;37.716;-122.060;2023-03-04T07:46:16;99785.24;;;10.55;42.57
51053;BME280;37093;37.716;-122.060;2023-03-04T07:48:45;99773.81;;;11.08;42.26
51053;BME280;37093;37.716;-122.060;2023-03-04T07:51:15;99769.68;;;10.46;43.07
51053;BME280;37093;37.716;-122.060;2023-03-04T07:53:45;99761.90;;;10.57;43.03
51053;BME280;37093;37.716;-122.060;2023-03-04T07:56:16;99757.50;;;11.23;41.85
51053;BME280;37093;37.716;-122.060;2023-03-04T07:58:45;99754.96;;;11.15;41.44
51053;BME280;37093;37.716;-122.060;2023-03-04T08:01:12;99753.27;;;9.89;42.33
51053;BME280;37093;37.716;-122.060;2023-03-04T08:03:41;99757.00;;;9.65;40.67
51053;BME280;37093;37.716;-122.060;2023-03-04T08:06:11;99756.68;;;11.54;39.01
51053;BME280;37093;37.716;-122.060;2023-03-04T08:08:40;99753.83;;;12.33;37.99
51053;BME280;37093;37.716;-122.060;2023-03-04T08:11:11;99750.90;;;11.68;39.09
51053;BME280;37093;37.716;-122.060;2023-03-04T08:13:39;99749.80;;;11.52;39.37
51053;BME280;37093;37.716;-122.060;2023-03-04T08:16:09;99754.79;;;11.03;40.77
51053;BME280;37093;37.716;-122.060;2023-03-04T08:18:38;99757.66;;;10.93;40.09
51053;BME280;37093;37.716;-122.060;2023-03-04T08:21:09;99749.37;;;10.57;41.12
51053;BME280;37093;37.716;-122.060;2023-03-04T08:23:38;99743.04;;;10.85;41.01
51053;BME280;37093;37.716;-122.060;2023-03-04T08:26:09;99750.27;;;10.58;41.05
51053;BME280;37093;37.716;-122.060;2023-03-04T08:28:38;99755.88;;;10.76;41.03
51053;BME280;37093;37.716;-122.060;2023-03-04T08:31:07;99751.41;;;10.11;42.64
51053;BME280;37093;37.716;-122.060;2023-03-04T08:33:36;99746.41;;;10.39;42.74
51053;BME280;37093;37.716;-122.060;2023-03-04T08:36:06;99747.22;;;10.61;42.83
51053;BME280;37093;37.716;-122.060;2023-03-04T08:38:34;99756.10;;;10.57;43.31
51053;BME280;37093;37.716;-122.060;2023-03-04T08:41:03;99757.81;;;10.37;42.94
51053;BME280;37093;37.716;-122.060;2023-03-04T08:43:33;99760.83;;;10.24;43.56
51053;BME280;37093;37.716;-122.060;2023-03-04T08:46:01;99761.49;;;10.37;43.85
51053;BME280;37093;37.716;-122.060;2023-03-04T08:48:30;99761.96;;;9.75;44.38
51053;BME280;37093;37.716;-122.060;2023-03-04T08:50:58;99760.74;;;9.60;44.96
51053;BME280;37093;37.716;-122.060;2023-03-04T08:53:27;99759.31;;;10.51;43.87
51053;BME280;37093;37.716;-122.060;2023-03-04T08:55:55;99762.08;;;9.88;44.02
51053;BME280;37093;37.716;-122.060;2023-03-04T08:58:24;99761.20;;;9.32;45.51
51053;BME280;37093;37.716;-122.060;2023-03-04T09:00:52;99763.89;;;10.09;43.82
51053;BME280;37093;37.716;-122.060;2023-03-04T09:03:21;99756.67;;;9.67;44.16
51053;BME280;37093;37.716;-122.060;2023-03-04T09:05:49;99749.62;;;10.46;42.61
51053;BME280;37093;37.716;-122.060;2023-03-04T09:08:18;99759.25;;;10.52;42.59
51053;BME280;37093;37.716;-122.060;2023-03-04T09:10:50;99761.94;;;10.08;43.46
51053;BME280;37093;37.716;-122.060;2023-03-04T09:13:20;99758.82;;;10.46;42.36
51053;BME280;37093;37.716;-122.060;2023-03-04T09:15:50;99754.83;;;9.85;43.48
51053;BME280;37093;37.716;-122.060;2023-03-04T09:18:21;99738.53;;;9.74;44.08
51053;BME280;37093;37.716;-122.060;2023-03-04T09:20:50;99739.07;;;9.69;44.10
51053;BME280;37093;37.716;-122.060;2023-03-04T09:23:19;99743.94;;;10.32;43.31
51053;BME280;37093;37.716;-122.060;2023-03-04T09:25:48;99746.13;;;10.54;42.73
51053;BME280;37093;37.716;-122.060;2023-03-04T09:28:17;99740.10;;;10.03;43.19
51053;BME280;37093;37.716;-122.060;2023-03-04T09:30:46;99739.21;;;10.09;43.61
51053;BME280;37093;37.716;-122.060;2023-03-04T09:33:16;99735.87;;;10.79;42.09
51053;BME280;37093;37.716;-122.060;2023-03-04T09:35:44;99738.78;;;11.17;41.57
51053;BME280;37093;37.716;-122.060;2023-03-04T09:38:13;99727.87;;;10.71;41.46
51053;BME280;37093;37.716;-122.060;2023-03-04T09:40:44;99720.05;;;10.16;42.94
51053;BME280;37093;37.716;-122.060;2023-03-04T09:43:19;99715.11;;;10.79;41.63
51053;BME280;37093;37.716;-122.060;2023-03-04T09:45:52;99711.31;;;11.43;40.46
51053;BME280;37093;37.716;-122.060;2023-03-04T09:48:25;99702.78;;;11.09;41.11
51053;BME280;37093;37.716;-122.060;2023-03-04T09:51:05;99702.97;;;11.08;40.51
51053;BME280;37093;37.716;-122.060;2023-03-04T09:53:39;99697.36;;;11.34;40.80
51053;BME280;37093;37.716;-122.060;2023-03-04T09:56:13;99689.01;;;11.24;40.57
51053;BME280;37093;37.716;-122.060;2023-03-04T09:58:49;99688.37;;;11.03;40.40
51053;BME280;37093;37.716;-122.060;2023-03-04T10:01:25;99679.95;;;10.80;41.56
51053;BME280;37093;37.716;-122.060;2023-03-04T10:04:02;99683.48;;;10.51;41.56
51053;BME280;37093;37.716;-122.060;2023-03-04T10:06:34;99687.33;;;10.98;41.11
51053;BME280;37093;37.716;-122.060;2023-03-04T10:09:08;99682.84;;;11.31;40.65
51053;BME280;37093;37.716;-122.060;2023-03-04T10:11:40;99678.11;;;11.30;40.44
51053;BME280;37093;37.716;-122.060;2023-03-04T10:14:29;99667.89;;;11.37;40.61
51053;BME280;37093;37.716;-122.060;2023-03-04T10:17:06;99656.57;;;10.83;41.45
51053;BME280;37093;37.716;-122.060;2023-03-04T10:19:57;99662.01;;;11.41;40.29
51053;BME280;37093;37.716;-122.060;2023-03-04T10:22:33;99660.90;;;11.56;40.16
51053;BME280;37093;37.716;-122.060;2023-03-04T10:25:18;99658.47;;;10.50;42.00
51053;BME280;37093;37.716;-122.060;2023-03-04T10:27:50;99659.67;;;10.94;41.46
51053;BME280;37093;37.716;-122.060;2023-03-04T10:30:29;99656.43;;;10.77;41.41
51053;BME280;37093;37.716;-122.060;2023-03-04T10:32:59;99651.50;;;10.50;41.32
51053;BME280;37093;37.716;-122.060;2023-03-04T10:35:32;99643.67;;;10.76;41.70
51053;BME280;37093;37.716;-122.060;2023-03-04T10:38:03;99637.66;;;10.70;41.65
51053;BME280;37093;37.716;-122.060;2023-03-04T10:40:39;99641.27;;;10.75;41.97
51053;BME280;37093;37.716;-122.060;2023-03-04T10:43:15;99642.10;;;10.97;41.75
51053;BME280;37093;37.716;-122.060;2023-03-04T10:45:44;99639.65;;;11.12;41.11
51053;BME280;37093;37.716;-122.060;2023-03-04T10:48:22;99630.22;;;11.11;41.57
51053;BME280;37093;37.716;-122.060;2023-03-04T10:50:51;99628.11;;;10.53;42.02
51053;BME280;37093;37.716;-122.060;2023-03-04T10:53:31;99624.79;;;11.16;41.21
51053;BME280;37093;37.716;-122.060;2023-03-04T10:56:00;99620.56;;;11.11;40.66
51053;BME280;37093;37.716;-122.060;2023-03-04T10:58:29;99629.60;;;11.26;40.22
51053;BME280;37093;37.716;-122.060;2023-03-04T11:01:03;99635.52;;;11.18;40.57
51053;BME280;37093;37.716;-122.060;2023-03-04T11:03:33;99630.73;;;10.93;41.85
51053;BME280;37093;37.716;-122.060;2023-03-04T11:06:09;99633.24;;;10.71;41.49
51053;BME280;37093;37.716;-122.060;2023-03-04T11:08:40;99637.95;;;10.93;41.04
51053;BME280;37093;37.716;-122.060;2023-03-04T11:11:29;99638.92;;;11.45;40.82
51053;BME280;37093;37.716;-122.060;2023-03-04T11:14:01;99630.82;;;11.16;41.07
51053;BME280;37093;37.716;-122.060;2023-03-04T11:16:32;99625.98;;;10.80;41.76
51053;BME280;37093;37.716;-122.060;2023-03-04T11:19:05;99611.86;;;10.39;42.00
51053;BME280;37093;37.716;-122.060;2023-03-04T11:21:39;99597.07;;;10.78;41.91
51053;BME280;37093;37.716;-122.060;2023-03-04T11:24:13;99612.06;;;10.79;41.43
51053;BME280;37093;37.716;-122.060;2023-03-04T11:26:47;99614.68;;;11.23;40.32
51053;BME280;37093;37.716;-122.060;2023-03-04T11:29:21;99613.86;;;11.06;40.88
51053;BME280;37093;37.716;-122.060;2023-03-04T11:31:54;99606.58;;;11.41;40.30
51053;BME280;37093;37.716;-122.060;2023-03-04T11:34:35;99600.90;;;10.74;41.82
51053;BME280;37093;37.716;-122.060;2023-03-04T11:37:14;99594.68;;;11.06;40.95
51053;BME280;37093;37.716;-122.060;2023-03-04T11:39:51;99598.80;;;10.30;42.38
51053;BME280;37093;37.716;-122.060;2023-03-04T11:42:30;99602.87;;;10.97;41.43
51053;BME280;37093;37.716;-122.060;2023-03-04T11:45:01;99604.98;;;10.61;41.63
51053;BME280;37093;37.716;-122.060;2023-03-04T11:47:40;99612.37;;;11.02;41.28
51053;BME280;37093;37.716;-122.060;2023-03-04T11:50:22;99613.84;;;10.60;41.92
51053;BME280;37093;37.716;-122.060;2023-03-04T11:53:06;99606.99;;;10.93;41.39
51053;BME280;37093;37.716;-122.060;2023-03-04T11:55:44;99600.85;;;10.44;42.16
51053;BME280;37093;37.716;-122.060;2023-03-04T11:58:38;99606.87;;;11.21;40.69
51053;BME280;37093;37.716;-122.060;2023-03-04T12:01:15;99606.12;;;11.57;40.19
51053;BME280;37093;37.716;-122.060;2023-03-04T12:03:59;99610.94;;;11.56;40.30
51053;BME280;37093;37.716;-122.060;2023-03-04T12:06:39;99606.66;;;10.99;40.41
51053;BME280;37093;37.716;-122.060;2023-03-04T12:09:20;99602.31;;;11.37;40.51
51053;BME280;37093;37.716;-122.060;2023-03-04T12:11:58;99605.05;;;11.78;39.72
51053;BME280;37093;37.716;-122.060;2023-03-04T12:14:30;99609.62;;;11.41;39.95
51053;BME280;37093;37.716;-122.060;2023-03-04T12:17:24;99605.59;;;11.15;40.89
51053;BME280;37093;37.716;-122.060;2023-03-04T12:21:36;99593.06;;;12.15;39.89
51053;BME280;37093;37.716;-122.060;2023-03-04T12:24:32;99592.97;;;11.74;39.78
51053;BME280;37093;37.716;-122.060;2023-03-04T12:27:08;99593.00;;;11.21;40.16
51053;BME280;37093;37.716;-122.060;2023-03-04T12:29:47;99594.26;;;10.77;41.35
51053;BME280;37093;37.716;-122.060;2023-03-04T12:32:23;99602.53;;;11.44;40.27
51053;BME280;37093;37.716;-122.060;2023-03-04T12:35:13;99609.46;;;11.30;40.55
51053;BME280;37093;37.716;-122.060;2023-03-04T12:37:56;99613.21;;;11.73;40.35
51053;BME280;37093;37.716;-122.060;2023-03-04T12:40:37;99602.19;;;11.42;40.62
51053;BME280;37093;37.716;-122.060;2023-03-04T12:43:30;99604.38;;;11.43;40.51
51053;BME280;37093;37.716;-122.060;2023-03-04T12:46:11;99608.62;;;11.77;39.48
51053;BME280;37093;37.716;-122.060;2023-03-04T12:48:47;99607.54;;;11.90;39.80
51053;BME280;37093;37.716;-122.060;2023-03-04T12:51:29;99599.36;;;11.16;40.39